Página principal
METAR-TAF:

METAR-TAF

Aeroportos :

Ziguinchor, Senegal

latitude: 12-33N, longitude: 016-16W, altura: 26 m

Observação actual do tempo

O boletim foi feito há 1 hora e 45 minutos, às 04:00 UTC
Vento 4 kt de oeste
Temperatura 27°C
Humidade 94%
Pressão 1012 hPa
Visibilidade 10 km ou mais
sem nuvens abaixo de 1500 metros e sem cumulonimbus

METAR: GOGG 230400Z 26004KT CAVOK 27/26 Q1012

Hora: 05:45 (05:45 UTC)


TAF: em falta

Observações e previsões do tempo de mais de 4000 aeroportos (mensagens METAR e TAF).

As estações disponíveis são os pontos amarelos e vermelhos sobre o mapa.

Mova o rato sobre o mapa para ver o nome da estação.

Depois clique no ponto para visualizar as observações e previsões meteorológicas.

Para alterar o mapa : clique nos botões verdes com uma cruz preta para aumentar o zoom; no botão verde com uma pitada de zoom; ou nas setas verdes para mapas adjacentes.


METAR-TAF: